This is the latest recevied weather packets stored in our database for station/object BMCB-37. If no packets are shown the sender has not sent any weather packets the latest 10 day(s).
| Time | Temp. | Humidity | Pressure | Rain* | Wind** | Luminosity | Snow |
|---|---|---|---|---|---|---|---|
| 1777539623 | 15° C | 43% | 1028.8 hPa | 0 mm | - | 626 W/m² | - |
| 1777538421 | 13.89° C | 43% | 1029.1 hPa | 0 mm | - | 588 W/m² | - |
| 1777528226 | 5° C | 74% | 1029.6 hPa | 0 mm | - | 26 W/m² | - |
| 1777522820 | 2.78° C | 80% | 1029.3 hPa | 0 mm | - | 2 W/m² | - |
| 1777519223 | 3.33° C | 84% | 1029.3 hPa | 0 mm | - | 0 W/m² | - |
| 1777515020 | 5.56° C | 69% | 1029.1 hPa | 0 mm | - | 0 W/m² | - |
| 1777509652 | 7.22° C | 67% | 1028.8 hPa | 0 mm | - | 0 W/m² | - |
| 1777498237 | 10° C | 62% | 1027.7 hPa | 0 mm | - | 0 W/m² | - |
| 1777494035 | 11.67° C | 57% | 1027.2 hPa | 0 mm | - | 0 W/m² | - |
| 1777491038 | 13.33° C | 53% | 1026.7 hPa | 0 mm | - | 0 W/m² | - |
| 1777490434 | 13.33° C | 53% | 1026.6 hPa | 0 mm | - | 0 W/m² | - |
| 1777485033 | 17.22° C | 37% | 1025.5 hPa | 0 mm | - | 82 W/m² | - |
| 1777483835 | 17.78° C | 39% | 1025.4 hPa | 0 mm | - | 44 W/m² | - |
| 1777483237 | 17.78° C | 38% | 1025.4 hPa | 0 mm | - | 48 W/m² | - |
| 1777480234 | 19.44° C | 36% | 1025.5 hPa | 0 mm | - | 292 W/m² | - |
| 1777479623 | 20° C | 37% | 1025.4 hPa | 0 mm | - | 320 W/m² | - |
| 1777476036 | 20.56° C | 35% | 1025.6 hPa | 0 mm | - | 480 W/m² | - |
| 1777473633 | 20.56° C | 34% | 1025.6 hPa | 0 mm | - | 572 W/m² | - |
| 1777471225 | 20° C | 34% | 1025.9 hPa | 0 mm | - | 656 W/m² | - |
| 1777469434 | 20° C | 36% | 1026 hPa | 0 mm | - | 700 W/m² | - |
| 1777468834 | 20° C | 36% | 1026.1 hPa | 0 mm | - | 714 W/m² | - |
| 1777464032 | 18.89° C | 39% | 1026.4 hPa | 0 mm | - | 778 W/m² | - |
| 1777457433 | 16.67° C | 42% | 1026.7 hPa | 0 mm | - | 720 W/m² | - |
| 1777453837 | 15° C | 46% | 1026.8 hPa | 0 mm | - | 630 W/m² | - |
| 1777451435 | 13.33° C | 48% | 1026.9 hPa | 0 mm | - | 554 W/m² | - |
* Rain latest hour (hover to see other rain measurements)
** Current wind speed in m/s (hover to see current wind gust speed)